Jean Yann Ricart

Jean Yann Ricart

Statistiques 2021

  • Courses courues : 194
  • Nb de victoires : 15
  • Nb de places : 52
  • Écart gagnant : 6
  • Réussite à la gagne : 8%
  • Réussite à la place : 27%
Musique : 6m 0a Dm 9m 5m 0m 1m 5m Dm 7m 2m 3m Dm 0a 8m Dm 7m Dm
DateRangCatégorieAlloc.Dist.HippodromeChevalRed. KmSpé.
02/12/21 6 Trot 100 000€ 2 850m Vincennes Chalimar de Guez 1'14"2 Monté lire

N'a joué aucun rôle utile.

28/11/21 0 Mixte 13 000€ 3 150m Angers Heliot de Gachere Attelé
28/11/21 D Mixte 12 000€ 2 425m Angers Jolie Honey Monté
26/11/21 9 Trot 38 000€ 2 850m Vincennes Bon Ton Gso 1'15"3 Monté
25/11/21 5 Trot 67 000€ 2 875m Vincennes Chalimar de Guez 1'13"9 Monté lire

Tout de suite à la pointe du combat, n'a plafonné que dans les cent cinquante derniers mètres.

21/11/21 0 Trot 19 000€ 3 025m Nantes Django Rudelande Monté
20/11/21 1 Trot 24 000€ 2 850m Laval Fabuleux Honey 1'14"7 Monté
18/11/21 5 Trot 90 000€ 2 850m Vincennes Eveil du Chatelet 1'13"7 Monté
16/11/21 D Trot 29 000€ 2 850m Vincennes Happy du Parc Monté
14/11/21 7 Trot 12 000€ 2 875m Meslay Du Maine Headline Fac 1'15"9 Monté
12/11/21 2 Trot 33 000€ 2 200m Vincennes Hayrton Magic 1'13"8 Monté
11/11/21 3 Trot 12 000€ 2 700m Graignes Harold d'Azur 1'16"0 Monté
11/11/21 D Trot 12 000€ 2 700m Graignes Histoire de l'Iton Monté
10/11/21 0 Trot 30 000€ 3 025m Nantes Gribouille Attelé lire

N'a pu que figurer au sein du peloton.

10/11/21 8 Trot 31 000€ 3 025m Nantes Dame de Tillard 1'13"8 Monté
08/11/21 D Trot 100 000€ 2 175m Vincennes Chalimar de Guez Monté lire

Après avoir figuré au sein du peloton, a été sanctionné pour finir alors qu'il n'était pas menaçant.

08/11/21 7 Trot 29 000€ 2 850m Vincennes Indigo Prior 1'19"5 Monté
07/11/21 D Trot 18 000€ 2 700m Machecoul Doqui Monté
07/11/21 4 Trot 12 000€ 2 700m Machecoul Hubiane de Bey 1'17"2 Monté
07/11/21 5 Trot 12 000€ 2 700m Machecoul Headline Fac 1'16"9 Monté
01/11/21 5 Trot 30 000€ 2 900m Laval Huwaga 1'15"7 Attelé lire

Après avoir évolué en queue de peloton, a comblé pas mal de terrain dans la phase finale.

31/10/21 D Trot 13 000€ 2 675m Le Mont Saint Michel Hora de la Motte Monté
27/10/21 6 Trot 43 000€ 2 250m Enghien Soisy Galactique Merite 1'14"7 Monté lire

Jamais très loin, a nettement faibli pour finir.

23/10/21 0 Trot 65 000€ 4 400m Caen Eveil du Chatelet Attelé lire

Longtemps en retrait, a conclu fort honorablement.

23/10/21 9 Trot 20 000€ 2 450m Caen Honey King 1'15"1 Monté
22/10/21 9 Trot 38 000€ 2 700m Vincennes Have Seven 1'16"6 Attelé lire

N'a joué aucun rôle utile.

21/10/21 D Trot 33 000€ 2 250m Enghien Soisy Happy du Parc Monté
21/10/21 2 Trot 49 000€ 2 900m Enghien Soisy Dame de Tillard 1'14"1 Monté
19/10/21 3 Trot 19 000€ 2 750m Cabourg Hippie de Boitron 1'15"8 Monté
17/10/21 D Trot 13 000€ 2 725m Lisieux Insaisissable Duo Monté
15/10/21 7 Trot 80 000€ 2 850m Vincennes Chalimar de Guez 1'14"1 Monté lire

N'a joué aucun rôle utile.

10/10/21 D Trot 12 000€ 2 950m Le Mans Hamilton Maza Monté
09/10/21 D Trot 18 000€ 2 850m Laval Hisba Wind Monté
06/10/21 D Trot 26 000€ 3 125m Angers Hurella Attelé
06/10/21 D Trot 19 000€ 2 425m Angers Fulton Monté
03/10/21 D Trot 13 000€ 2 825m Cordemais Hermine Quesnot Monté
03/10/21 3 Trot 15 000€ 2 850m Laval Gazelle Mika 1'16"1 Monté
02/10/21 8 Trot 18 000€ 3 000m Nantes Get On 1'18"4 Monté
02/10/21 0 Trot 24 000€ 3 025m Nantes Empire City Monté
01/10/21 8 Trot 16 000€ 2 850m Laval Ingala d'Alouette 1'22"3 Monté
26/09/21 1 Trot 22 000€ 2 775m Ecommoy Express du Gers 1"24'3 Attelé
26/09/21 2 Trot 13 000€ 2 750m Ecommoy Hippie de Boitron 1'26"4 Monté
25/09/21 7 Trot 22 000€ 2 200m Vichy Iroise de Coquerie 1'18"2 Monté
25/09/21 7 Trot 22 000€ 2 150m Vichy Improve Julry 1'15"2 Attelé
19/09/21 D Trot 12 000€ 2 475m Niort Halleluia Esteban Monté
19/09/21 3 Trot 12 000€ 2 475m Niort Hashtag de Ginai Monté
19/09/21 D Trot 19 000€ 3 575m Niort Dream World Attelé
19/09/21 6 Trot 14 000€ 2 475m Niort Ixor de l'Iton Monté
18/09/21 D Trot 13 000€ 2 550m Dieppe Hedoniste d'Em Monté
17/09/21 6 Trot 22 000€ 2 725m Pornichet La Baule Forgeas du Gite 1'15"8 Monté